Time;durP1;ratioP1;P1;durP2;ratioP2;P2;SDS_P1;SDS_P2;PMS_P1;PMS_P2;Temp;Humidity;BMP_temperature;BMP_pressure;BME280_temperature;BME280_humidity;BME280_pressure;Samples;Min_cycle;Max_cycle;Signal;HPM_P1;HPM_P2
2022/03/25 00:02:10;;;;;;;61.45;37.42;;;6.40;99.90;;;;;;5105469;27;20138;-61
2022/03/25 00:04:36;;;;;;;54.45;34.95;;;6.40;99.90;;;;;;5115598;27;20795;-60
2022/03/25 00:07:01;;;;;;;66.68;39.92;;;6.40;99.90;;;;;;5115235;27;21101;-61
2022/03/25 00:09:27;;;;;;;60.78;39.05;;;6.30;99.90;;;;;;5116104;27;20047;-61
2022/03/25 00:11:53;;;;;;;73.25;42.60;;;6.30;99.90;;;;;;5115563;27;20046;-61
2022/03/25 00:14:19;;;;;;;70.22;40.30;;;6.30;99.90;;;;;;5114981;27;20501;-60
2022/03/25 00:16:45;;;;;;;62.17;38.92;;;6.30;99.90;;;;;;5115307;27;20888;-60
2022/03/25 00:19:11;;;;;;;65.05;41.67;;;6.30;99.90;;;;;;5115315;27;20057;-61
2022/03/25 00:21:37;;;;;;;69.93;42.00;;;6.20;99.90;;;;;;5108760;27;20043;-60
2022/03/25 00:24:04;;;;;;;68.10;39.42;;;6.20;99.90;;;;;;5079999;28;20051;-61
2022/03/25 00:26:30;;;;;;;70.22;41.10;;;6.10;99.90;;;;;;5079978;27;20151;-60
2022/03/25 00:28:55;;;;;;;68.43;41.92;;;6.10;99.90;;;;;;5116900;27;20945;-60
2022/03/25 00:31:21;;;;;;;69.00;38.45;;;6.00;99.90;;;;;;5109922;27;20051;-63
2022/03/25 00:33:49;;;;;;;76.35;42.50;;;6.00;99.90;;;;;;5103929;27;20043;-60
2022/03/25 00:36:17;;;;;;;70.93;40.92;;;6.00;99.90;;;;;;5106754;27;20087;-61
2022/03/25 00:38:43;;;;;;;69.05;43.92;;;6.00;99.90;;;;;;5106571;27;20043;-61
2022/03/25 00:41:11;;;;;;;73.75;44.00;;;6.00;99.90;;;;;;5100149;27;20036;-61
2022/03/25 00:43:37;;;;;;;81.45;47.30;;;6.00;99.90;;;;;;5104102;27;20103;-59
2022/03/25 00:46:02;;;;;;;90.03;53.03;;;5.90;99.90;;;;;;5094258;27;20054;-61
2022/03/25 00:48:28;;;;;;;67.22;40.28;;;5.90;99.90;;;;;;5099241;27;20051;-60
2022/03/25 00:50:54;;;;;;;82.13;47.53;;;5.90;99.90;;;;;;5096472;27;20040;-61
2022/03/25 00:53:20;;;;;;;77.13;44.67;;;5.80;99.90;;;;;;5105710;27;20141;-61
2022/03/25 00:55:46;;;;;;;77.00;46.50;;;5.80;99.90;;;;;;5099086;27;20051;-60
2022/03/25 00:58:11;;;;;;;72.82;42.20;;;5.80;99.90;;;;;;5102270;27;20153;-61
2022/03/25 01:00:37;;;;;;;86.03;48.15;;;5.80;99.90;;;;;;5082790;27;20047;-60
2022/03/25 01:03:03;;;;;;;74.50;41.95;;;5.80;99.90;;;;;;5094632;27;20044;-62
2022/03/25 01:05:29;;;;;;;81.68;47.67;;;5.70;99.90;;;;;;5096228;27;20410;-61
2022/03/25 01:07:55;;;;;;;84.90;50.63;;;5.70;99.90;;;;;;5102045;27;20098;-61
2022/03/25 01:10:23;;;;;;;82.63;48.25;;;5.70;99.90;;;;;;5100866;27;20446;-62
2022/03/25 01:12:48;;;;;;;71.47;44.28;;;5.70;99.90;;;;;;5083611;27;20071;-60
2022/03/25 01:15:14;;;;;;;81.47;49.10;;;5.70;99.90;;;;;;5106235;27;20034;-61
2022/03/25 01:17:39;;;;;;;64.88;38.67;;;5.70;99.90;;;;;;5110636;27;20100;-60
2022/03/25 01:20:06;;;;;;;70.22;42.88;;;5.70;99.90;;;;;;5103706;27;20154;-62
2022/03/25 01:22:31;;;;;;;66.80;39.95;;;5.70;99.90;;;;;;5104775;27;20495;-60
2022/03/25 01:24:57;;;;;;;75.95;44.03;;;5.70;99.90;;;;;;5105468;27;20050;-61
2022/03/25 01:27:22;;;;;;;68.80;41.88;;;5.70;99.90;;;;;;5104102;27;20051;-60
2022/03/25 01:29:50;;;;;;;75.78;43.15;;;5.70;99.90;;;;;;5099710;27;20059;-60
2022/03/25 01:32:16;;;;;;;68.47;38.92;;;5.70;99.90;;;;;;5103564;27;20050;-60
2022/03/25 01:34:42;;;;;;;75.47;43.17;;;5.60;99.90;;;;;;5105463;27;20053;-60
2022/03/25 01:37:07;;;;;;;68.28;44.42;;;5.50;99.90;;;;;;5104073;27;20568;-61
2022/03/25 01:39:33;;;;;;;71.05;39.65;;;5.40;99.90;;;;;;5107782;27;20031;-60
2022/03/25 01:41:59;;;;;;;80.40;48.85;;;5.50;99.90;;;;;;5103637;27;20158;-61
2022/03/25 01:44:30;;;;;;;72.60;43.10;;;5.50;99.90;;;;;;5102434;27;20421;-61
2022/03/25 01:46:57;;;;;;;63.42;43.10;;;5.40;99.90;;;;;;5109581;27;20043;-59
2022/03/25 01:49:24;;;;;;;67.15;39.80;;;5.40;99.90;;;;;;5101149;27;20043;-61
2022/03/25 01:51:51;;;;;;;60.42;34.92;;;5.50;99.90;;;;;;5098499;27;20765;-60
2022/03/25 01:54:24;;;;;;;68.82;39.95;;;5.50;99.90;;;;;;5098287;27;20189;-60
2022/03/25 01:57:00;;;;;;;85.30;48.50;;;5.40;99.90;;;;;;5086891;27;20043;-60
2022/03/25 01:59:27;;;;;;;71.72;45.95;;;5.40;99.90;;;;;;5104485;27;20039;-61
2022/03/25 02:01:55;;;;;;;84.20;48.40;;;5.40;99.90;;;;;;5104408;27;20060;-62
2022/03/25 02:04:22;;;;;;;61.17;38.22;;;5.40;99.90;;;;;;5096715;27;20040;-61
2022/03/25 02:06:48;;;;;;;69.75;40.42;;;5.30;99.90;;;;;;5103730;28;20489;-61
2022/03/25 02:09:14;;;;;;;71.70;44.35;;;5.30;99.90;;;;;;5115271;28;20130;-61
2022/03/25 02:11:40;;;;;;;57.65;33.38;;;5.30;99.90;;;;;;5087857;28;20046;-60
2022/03/25 02:14:07;;;;;;;69.60;40.10;;;5.30;99.90;;;;;;5095842;28;20096;-60
2022/03/25 02:16:34;;;;;;;68.32;38.13;;;5.30;99.90;;;;;;5106755;27;20960;-61
2022/03/25 02:19:00;;;;;;;63.65;32.83;;;5.30;99.90;;;;;;5106854;28;20051;-60
2022/03/25 02:21:29;;;;;;;61.95;39.50;;;5.30;99.90;;;;;;5091465;28;20636;-61
2022/03/25 02:23:55;;;;;;;59.80;33.17;;;5.20;99.90;;;;;;5114555;28;20066;-62
2022/03/25 02:26:22;;;;;;;74.78;42.60;;;5.30;99.90;;;;;;5095258;27;20040;-61
2022/03/25 02:28:47;;;;;;;72.82;42.95;;;5.30;99.90;;;;;;5106937;28;20058;-61
2022/03/25 02:31:15;;;;;;;67.15;38.22;;;5.20;99.90;;;;;;5080671;27;20051;-61
2022/03/25 02:33:40;;;;;;;56.60;33.85;;;5.20;99.90;;;;;;5112186;27;20039;-60
2022/03/25 02:36:08;;;;;;;54.53;32.65;;;5.20;99.90;;;;;;5116121;28;20926;-62
2022/03/25 02:38:35;;;;;;;58.80;34.13;;;5.10;99.90;;;;;;5088447;28;20055;-60
2022/03/25 02:41:01;;;;;;;67.80;42.20;;;5.10;99.90;;;;;;5104583;28;20852;-60
2022/03/25 02:43:26;;;;;;;69.53;43.50;;;5.00;99.90;;;;;;5107437;27;20055;-60
2022/03/25 02:45:53;;;;;;;65.45;37.60;;;5.00;99.90;;;;;;5092135;27;20063;-61
2022/03/25 02:48:18;;;;;;;54.88;33.35;;;5.00;99.90;;;;;;5115272;27;20074;-62
2022/03/25 02:50:46;;;;;;;64.45;38.70;;;5.00;99.90;;;;;;5112281;27;20177;-60
2022/03/25 02:53:13;;;;;;;67.55;36.78;;;5.00;99.90;;;;;;5100017;27;20050;-60
2022/03/25 02:55:40;;;;;;;67.93;40.00;;;4.90;99.90;;;;;;5110276;27;20043;-60
2022/03/25 02:58:06;;;;;;;58.45;36.53;;;4.90;99.90;;;;;;5117785;27;20080;-62
2022/03/25 03:00:32;;;;;;;60.33;34.15;;;4.90;99.90;;;;;;5108649;27;20052;-61
2022/03/25 03:03:00;;;;;;;66.38;40.13;;;4.90;99.90;;;;;;5105331;27;20070;-60
2022/03/25 03:05:30;;;;;;;62.08;37.83;;;4.90;99.90;;;;;;5085786;27;20056;-61
2022/03/25 03:07:57;;;;;;;54.03;32.05;;;4.90;99.90;;;;;;5119057;27;20756;-60
2022/03/25 03:10:24;;;;;;;60.63;34.75;;;4.90;99.90;;;;;;5113537;27;20103;-61
2022/03/25 03:12:50;;;;;;;55.28;34.10;;;4.80;99.90;;;;;;5107068;27;20614;-61
2022/03/25 03:15:17;;;;;;;63.60;36.85;;;4.30;99.90;;;;;;5099121;27;20104;-61
2022/03/25 03:17:45;;;;;;;52.97;32.60;;;5.80;99.90;;;;;;5109045;27;20457;-61
2022/03/25 03:20:12;;;;;;;47.38;31.05;;;4.90;99.90;;;;;;5098695;28;20959;-62
2022/03/25 03:22:38;;;;;;;60.63;35.10;;;4.90;99.90;;;;;;5109735;27;20164;-60
2022/03/25 03:25:04;;;;;;;67.13;37.47;;;4.90;99.90;;;;;;5101367;27;20080;-61
2022/03/25 03:27:30;;;;;;;62.78;34.35;;;4.90;99.90;;;;;;5111061;27;20935;-60
2022/03/25 03:29:56;;;;;;;57.78;34.35;;;4.80;99.90;;;;;;5105217;27;20146;-60
2022/03/25 03:32:25;;;;;;;55.08;33.40;;;4.70;99.90;;;;;;5114866;27;20051;-62
2022/03/25 03:34:52;;;;;;;63.95;38.00;;;4.70;99.90;;;;;;5111104;27;20035;-62
2022/03/25 03:37:18;;;;;;;58.47;31.23;;;4.70;99.90;;;;;;5100187;27;20046;-62
2022/03/25 03:39:43;;;;;;;60.53;40.70;;;4.80;99.90;;;;;;5108340;27;20035;-60
2022/03/25 03:42:09;;;;;;;65.10;39.70;;;4.80;99.90;;;;;;5118419;27;20054;-60
2022/03/25 03:44:36;;;;;;;76.60;44.63;;;4.80;99.90;;;;;;5110381;27;20073;-60
2022/03/25 03:47:03;;;;;;;78.18;43.13;;;4.80;99.90;;;;;;5119179;27;20089;-61
2022/03/25 03:49:29;;;;;;;66.88;40.30;;;4.80;99.90;;;;;;5114924;27;20115;-60
2022/03/25 03:51:54;;;;;;;71.13;36.95;;;4.80;99.90;;;;;;5111615;27;20045;-62
2022/03/25 03:54:20;;;;;;;66.68;39.78;;;4.90;99.90;;;;;;5099104;27;20692;-62
2022/03/25 03:56:46;;;;;;;77.57;46.65;;;4.80;99.90;;;;;;5114035;27;20146;-61
2022/03/25 03:59:12;;;;;;;65.13;37.80;;;4.80;99.90;;;;;;5117866;27;20744;-60
2022/03/25 04:01:38;;;;;;;68.55;37.83;;;4.80;99.90;;;;;;5091100;27;20804;-60
2022/03/25 04:04:03;;;;;;;68.18;40.58;;;4.80;99.90;;;;;;5111048;27;20799;-60
2022/03/25 04:06:29;;;;;;;70.47;45.45;;;4.80;99.90;;;;;;5078555;28;20124;-61
2022/03/25 04:08:56;;;;;;;77.65;42.50;;;4.90;99.90;;;;;;5108865;27;20042;-61
2022/03/25 04:11:21;;;;;;;66.80;40.00;;;4.90;99.90;;;;;;5117430;27;20494;-61
2022/03/25 04:13:47;;;;;;;69.65;41.78;;;4.80;99.90;;;;;;5109805;27;20213;-60
2022/03/25 04:16:13;;;;;;;66.03;38.30;;;4.80;99.90;;;;;;5104450;27;20082;-64
2022/03/25 04:18:38;;;;;;;71.68;40.53;;;4.90;99.90;;;;;;5100863;27;20050;-60
2022/03/25 04:21:06;;;;;;;69.25;38.70;;;4.80;99.90;;;;;;5106897;27;20059;-60
2022/03/25 04:23:32;;;;;;;61.90;36.05;;;4.80;99.90;;;;;;5104372;27;20051;-60
2022/03/25 04:25:58;;;;;;;71.15;38.25;;;4.80;99.90;;;;;;5092917;27;20104;-62
2022/03/25 04:28:24;;;;;;;76.22;47.25;;;4.80;99.90;;;;;;5118277;27;20102;-60
2022/03/25 04:30:49;;;;;;;59.78;34.58;;;4.70;99.90;;;;;;5090694;27;20039;-60
2022/03/25 04:33:15;;;;;;;63.55;39.72;;;4.80;99.90;;;;;;5116961;27;20652;-60
2022/03/25 04:35:41;;;;;;;68.18;38.05;;;4.70;99.90;;;;;;5109407;27;20052;-61
2022/03/25 04:38:07;;;;;;;67.80;39.72;;;4.70;99.90;;;;;;5104370;27;20050;-61
2022/03/25 04:40:34;;;;;;;70.22;36.25;;;4.70;99.90;;;;;;5100275;27;20043;-61
2022/03/25 04:43:01;;;;;;;63.95;36.88;;;4.70;99.90;;;;;;5105799;27;20060;-60
2022/03/25 04:45:28;;;;;;;64.60;36.55;;;4.70;99.90;;;;;;5098144;27;20047;-60
2022/03/25 04:47:54;;;;;;;66.53;40.90;;;4.70;99.90;;;;;;5108246;27;20395;-61
2022/03/25 04:50:20;;;;;;;73.03;41.03;;;4.70;99.90;;;;;;5097525;28;20187;-60
2022/03/25 04:52:46;;;;;;;64.15;35.70;;;4.70;99.90;;;;;;5107592;27;20478;-59
2022/03/25 04:55:12;;;;;;;56.38;33.42;;;4.70;99.90;;;;;;5098583;27;20791;-60
2022/03/25 04:57:41;;;;;;;64.32;32.35;;;4.70;99.90;;;;;;5103936;27;20082;-59
2022/03/25 05:00:10;;;;;;;61.90;34.42;;;4.60;99.90;;;;;;5111688;27;20241;-61
2022/03/25 05:02:37;;;;;;;59.88;33.45;;;4.60;99.90;;;;;;5110103;27;20059;-60
2022/03/25 05:05:03;;;;;;;65.68;35.22;;;4.60;99.90;;;;;;5106082;27;20933;-60
2022/03/25 05:07:31;;;;;;;58.40;32.17;;;4.60;99.90;;;;;;5096940;27;20042;-60
2022/03/25 05:09:58;;;;;;;63.17;36.22;;;4.60;99.90;;;;;;5105776;27;20043;-61
2022/03/25 05:12:24;;;;;;;57.00;34.00;;;4.60;99.90;;;;;;5118010;27;20128;-61
2022/03/25 05:14:50;;;;;;;60.60;35.97;;;4.60;99.90;;;;;;5108399;27;20146;-60
2022/03/25 05:17:15;;;;;;;48.13;28.50;;;4.60;99.90;;;;;;5098326;27;20130;-60
2022/03/25 05:19:42;;;;;;;47.60;28.92;;;4.60;99.90;;;;;;5096576;28;20040;-60
2022/03/25 05:22:08;;;;;;;62.72;37.03;;;4.60;99.90;;;;;;5096205;28;20916;-60
2022/03/25 05:24:33;;;;;;;58.22;32.92;;;4.50;99.90;;;;;;5115573;27;20059;-61
2022/03/25 05:26:59;;;;;;;41.28;28.10;;;4.50;99.90;;;;;;5116418;27;20730;-62
2022/03/25 05:29:26;;;;;;;51.47;28.65;;;4.50;99.90;;;;;;5103554;27;20043;-61
2022/03/25 05:31:52;;;;;;;44.50;24.80;;;4.50;99.90;;;;;;5107831;27;20047;-60
2022/03/25 05:34:17;;;;;;;56.15;33.55;;;4.50;99.90;;;;;;5080626;28;20214;-60
2022/03/25 05:36:44;;;;;;;54.40;29.15;;;4.40;99.90;;;;;;5100032;27;20040;-60
2022/03/25 05:39:09;;;;;;;52.33;30.80;;;4.50;99.90;;;;;;5103278;27;20050;-61
2022/03/25 05:41:35;;;;;;;57.20;33.42;;;4.50;99.90;;;;;;5112348;27;20043;-61
2022/03/25 05:44:01;;;;;;;50.83;31.05;;;4.50;99.90;;;;;;5116221;27;20093;-61
2022/03/25 05:46:26;;;;;;;47.20;26.88;;;4.50;99.90;;;;;;5098289;27;20753;-62
2022/03/25 05:48:52;;;;;;;62.50;32.75;;;4.50;99.90;;;;;;5116331;27;20051;-60
2022/03/25 05:51:18;;;;;;;47.65;28.20;;;4.60;99.90;;;;;;5115606;27;20047;-62
2022/03/25 05:53:44;;;;;;;47.58;29.42;;;4.60;99.90;;;;;;5115885;27;20046;-60
2022/03/25 05:56:11;;;;;;;54.05;32.70;;;4.60;99.90;;;;;;5115971;27;20051;-61
2022/03/25 05:58:38;;;;;;;47.47;26.65;;;4.60;99.90;;;;;;5115016;28;20047;-60
2022/03/25 06:01:06;;;;;;;57.78;31.13;;;4.60;99.90;;;;;;5115486;27;20526;-61
2022/03/25 06:03:32;;;;;;;51.92;32.75;;;4.60;99.90;;;;;;5108433;27;20126;-61
2022/03/25 06:05:59;;;;;;;55.92;30.50;;;4.70;99.90;;;;;;5096357;28;20081;-61
2022/03/25 06:08:25;;;;;;;57.60;32.03;;;4.70;99.90;;;;;;5099902;28;20054;-61
2022/03/25 06:10:51;;;;;;;59.70;31.38;;;4.70;99.90;;;;;;5107739;28;20035;-60
2022/03/25 06:13:18;;;;;;;59.15;31.75;;;4.80;99.90;;;;;;5095341;28;20151;-60
2022/03/25 06:15:44;;;;;;;55.08;31.52;;;5.00;99.90;;;;;;5098241;28;20140;-61
2022/03/25 06:18:10;;;;;;;63.08;35.25;;;4.90;99.90;;;;;;5102942;27;20834;-61
2022/03/25 06:20:36;;;;;;;50.03;27.95;;;5.00;99.90;;;;;;5106365;27;20035;-60
2022/03/25 06:23:02;;;;;;;48.13;31.65;;;5.00;99.90;;;;;;5104601;27;20051;-62
2022/03/25 06:25:28;;;;;;;58.70;36.78;;;5.10;99.90;;;;;;5093158;27;20043;-61
2022/03/25 06:27:56;;;;;;;57.47;34.38;;;5.10;99.90;;;;;;5119840;27;20446;-61
2022/03/25 06:30:24;;;;;;;61.38;36.38;;;5.20;99.90;;;;;;5105859;27;20123;-60
2022/03/25 06:32:50;;;;;;;71.68;40.80;;;5.20;99.90;;;;;;5107119;27;20080;-60
2022/03/25 06:35:19;;;;;;;61.45;38.00;;;5.30;99.90;;;;;;5119496;27;20043;-61
2022/03/25 06:37:45;;;;;;;59.08;37.75;;;6.80;99.90;;;;;;5106599;27;20083;-60
2022/03/25 06:40:11;;;;;;;57.33;37.17;;;5.40;99.90;;;;;;5102205;27;20125;-61
2022/03/25 06:42:39;;;;;;;62.25;35.00;;;5.50;99.90;;;;;;5108962;27;20150;-60
2022/03/25 06:45:06;;;;;;;59.13;35.22;;;5.60;99.90;;;;;;5124060;27;20066;-60
2022/03/25 06:47:32;;;;;;;55.20;31.13;;;5.70;99.90;;;;;;5088916;27;20086;-61
2022/03/25 06:49:58;;;;;;;57.97;34.03;;;5.80;99.90;;;;;;5113072;27;20039;-62
2022/03/25 06:52:24;;;;;;;63.70;33.63;;;5.90;99.90;;;;;;5104312;27;20035;-60
2022/03/25 06:54:50;;;;;;;59.10;33.28;;;6.00;99.90;;;;;;5108365;27;20047;-61
2022/03/25 06:57:16;;;;;;;61.78;37.15;;;7.00;99.90;;;;;;5094058;27;20054;-61
2022/03/25 06:59:42;;;;;;;59.08;35.85;;;6.10;99.90;;;;;;5104223;27;20075;-60
2022/03/25 07:02:10;;;;;;;64.90;33.85;;;6.20;99.90;;;;;;5103626;27;20060;-61
2022/03/25 07:04:36;;;;;;;63.00;34.17;;;6.30;99.90;;;;;;5106858;27;20587;-60
2022/03/25 07:07:04;;;;;;;67.47;36.83;;;6.40;99.90;;;;;;5089831;27;20039;-61
2022/03/25 07:09:30;;;;;;;48.03;30.13;;;6.50;99.90;;;;;;5108221;27;20050;-60
2022/03/25 07:11:56;;;;;;;57.90;35.63;;;6.70;99.90;;;;;;5107886;27;20046;-60
2022/03/25 07:14:28;;;;;;;57.95;33.22;;;6.80;99.90;;;;;;5110255;27;20047;-60
2022/03/25 07:16:54;;;;;;;55.55;32.17;;;6.90;99.90;;;;;;5097042;28;20140;-60
2022/03/25 07:19:20;;;;;;;60.20;33.35;;;7.00;99.90;;;;;;5097274;27;20101;-60
2022/03/25 07:21:46;;;;;;;57.10;34.80;;;7.10;99.90;;;;;;5115926;27;20092;-61
2022/03/25 07:24:12;;;;;;;46.22;30.63;;;7.20;99.90;;;;;;5097451;27;20575;-61
2022/03/25 07:26:37;;;;;;;57.58;34.55;;;7.30;99.90;;;;;;5105200;27;21008;-60
2022/03/25 07:29:04;;;;;;;53.95;33.70;;;7.40;99.90;;;;;;5086762;27;20910;-60
2022/03/25 07:31:32;;;;;;;53.85;31.58;;;7.40;99.90;;;;;;5100098;27;20079;-60
2022/03/25 07:33:58;;;;;;;50.55;29.83;;;7.50;99.90;;;;;;5082874;27;20039;-60
2022/03/25 07:36:24;;;;;;;52.58;33.13;;;7.60;99.90;;;;;;5101665;27;20089;-60
2022/03/25 07:38:51;;;;;;;51.08;30.00;;;7.70;99.90;;;;;;5099900;27;20040;-60
2022/03/25 07:41:20;;;;;;;52.22;30.65;;;7.80;99.90;;;;;;5101245;27;20051;-61
2022/03/25 07:43:46;;;;;;;49.50;27.67;;;8.00;99.90;;;;;;5098762;27;20055;-61
2022/03/25 07:46:11;;;;;;;46.33;28.02;;;8.30;99.90;;;;;;5096611;27;20043;-62
2022/03/25 07:48:37;;;;;;;41.60;26.35;;;9.20;99.90;;;;;;5084425;27;20137;-60
2022/03/25 07:51:04;;;;;;;35.40;23.10;;;10.50;99.90;;;;;;5102075;27;20150;-60
2022/03/25 07:53:31;;;;;;;39.17;23.92;;;11.10;99.90;;;;;;5100260;27;20824;-60
2022/03/25 07:55:57;;;;;;;43.30;24.58;;;11.90;99.90;;;;;;5103252;27;20047;-61
2022/03/25 07:58:23;;;;;;;38.30;24.23;;;12.00;99.90;;;;;;5079864;27;20098;-61
2022/03/25 08:00:50;;;;;;;44.80;25.75;;;12.00;99.90;;;;;;5101760;27;20115;-62
2022/03/25 08:03:16;;;;;;;40.75;23.83;;;11.90;99.90;;;;;;5110935;27;20135;-61
2022/03/25 08:05:43;;;;;;;33.28;22.95;;;12.60;99.90;;;;;;5107096;27;20035;-62
2022/03/25 08:08:09;;;;;;;38.97;24.65;;;13.30;99.90;;;;;;5099066;27;20114;-61
2022/03/25 08:10:38;;;;;;;36.67;25.25;;;13.70;99.90;;;;;;5106245;27;20040;-60
2022/03/25 08:13:05;;;;;;;44.03;24.20;;;14.00;99.90;;;;;;5107551;27;20035;-62
2022/03/25 08:15:32;;;;;;;34.47;23.50;;;14.40;99.90;;;;;;5099575;27;20040;-61
2022/03/25 08:18:10;;;;;;;32.97;21.30;;;15.10;99.90;;;;;;5097317;27;20818;-60
2022/03/25 08:20:39;;;;;;;34.42;22.58;;;15.20;99.20;;;;;;5098361;27;20053;-61
2022/03/25 08:23:06;;;;;;;29.00;20.05;;;14.90;98.20;;;;;;5086338;27;20050;-60
2022/03/25 08:28:17;;;;;;;34.30;23.27;;;14.70;98.30;;;;;;5095328;27;20050;-61
2022/03/25 08:30:45;;;;;;;31.80;23.02;;;15.00;98.80;;;;;;5102979;27;20088;-61
2022/03/25 08:33:11;;;;;;;35.03;23.20;;;14.50;97.90;;;;;;5106335;27;20080;-61
2022/03/25 08:35:38;;;;;;;37.20;25.17;;;14.40;98.20;;;;;;5096751;27;20039;-62
2022/03/25 08:38:05;;;;;;;32.35;22.80;;;14.50;97.60;;;;;;5096717;27;20051;-61
2022/03/25 08:40:32;;;;;;;35.45;25.15;;;15.40;97.80;;;;;;5083239;27;20722;-60
2022/03/25 08:42:58;;;;;;;38.05;22.88;;;15.60;94.90;;;;;;5093878;27;20044;-60
2022/03/25 08:45:24;;;;;;;32.67;22.20;;;15.70;96.60;;;;;;5114683;27;20047;-61
2022/03/25 08:47:51;;;;;;;31.58;21.88;;;16.10;95.70;;;;;;5121483;27;20619;-60
2022/03/25 08:50:18;;;;;;;29.10;20.40;;;15.80;92.20;;;;;;5094705;28;20079;-61
2022/03/25 08:52:44;;;;;;;29.63;22.08;;;16.40;95.50;;;;;;5101334;27;20047;-62
2022/03/25 08:55:11;;;;;;;27.77;21.55;;;16.40;92.60;;;;;;5103871;27;20054;-61
2022/03/25 08:57:38;;;;;;;32.55;21.52;;;16.40;94.30;;;;;;5097164;27;20031;-61
2022/03/25 09:00:12;;;;;;;31.95;21.27;;;16.00;91.70;;;;;;5114937;27;20054;-62
2022/03/25 09:02:40;;;;;;;30.10;21.73;;;15.50;90.80;;;;;;5102019;27;20163;-62
2022/03/25 09:05:07;;;;;;;31.90;20.35;;;15.80;93.80;;;;;;5106821;27;20834;-62
2022/03/25 09:07:33;;;;;;;32.53;22.30;;;16.00;93.10;;;;;;5100165;27;20867;-61
2022/03/25 09:09:59;;;;;;;29.15;21.77;;;16.30;93.10;;;;;;5093903;27;20056;-61
2022/03/25 09:12:24;;;;;;;30.75;22.63;;;16.10;92.70;;;;;;5114178;27;20065;-62
2022/03/25 09:14:50;;;;;;;28.80;21.00;;;16.20;92.30;;;;;;5107130;27;20070;-61
2022/03/25 09:17:18;;;;;;;35.67;22.48;;;16.00;91.40;;;;;;5108994;27;20050;-63
2022/03/25 09:19:47;;;;;;;40.45;27.70;;;16.90;90.30;;;;;;5074667;28;20405;-62
2022/03/25 09:22:13;;;;;;;38.60;25.10;;;17.80;87.70;;;;;;5092669;28;20043;-61
2022/03/25 09:24:38;;;;;;;37.35;25.70;;;18.20;89.00;;;;;;5113162;27;20858;-62
2022/03/25 09:27:04;;;;;;;45.40;28.33;;;18.50;84.30;;;;;;5114143;27;20469;-62
2022/03/25 09:29:30;;;;;;;41.92;27.73;;;18.60;86.10;;;;;;5112925;27;20051;-62
2022/03/25 09:31:56;;;;;;;39.00;26.27;;;18.60;84.20;;;;;;5113709;27;20046;-61
2022/03/25 09:37:09;;;;;;;36.65;27.30;;;17.90;83.10;;;;;;5101713;27;20055;-61
2022/03/25 09:39:34;;;;;;;34.45;22.77;;;17.60;82.80;;;;;;5110743;27;20039;-60
2022/03/25 09:42:03;;;;;;;35.00;23.88;;;17.70;79.40;;;;;;5101986;27;20051;-59
2022/03/25 09:44:30;;;;;;;31.77;21.98;;;18.00;80.30;;;;;;5092665;27;20470;-61
2022/03/25 09:46:56;;;;;;;34.63;22.65;;;17.60;79.40;;;;;;5101908;27;20046;-61
2022/03/25 09:49:21;;;;;;;32.15;22.48;;;17.20;77.80;;;;;;5098921;27;20047;-61
2022/03/25 09:51:47;;;;;;;32.03;21.75;;;17.40;81.40;;;;;;5104877;27;20045;-61
2022/03/25 09:54:14;;;;;;;29.92;20.20;;;17.80;81.60;;;;;;5098398;27;20163;-61
2022/03/25 09:56:40;;;;;;;31.83;20.98;;;18.50;76.00;;;;;;5101269;27;20388;-61
2022/03/25 09:59:07;;;;;;;27.77;20.98;;;19.10;75.20;;;;;;5118980;27;20556;-61
2022/03/25 10:01:33;;;;;;;31.73;20.38;;;18.40;77.10;;;;;;5104831;27;20101;-61
2022/03/25 10:04:00;;;;;;;28.75;21.05;;;17.20;71.70;;;;;;5102095;27;20524;-61
2022/03/25 10:06:26;;;;;;;32.53;21.25;;;17.60;76.30;;;;;;5107865;27;20039;-61
2022/03/25 10:09:01;;;;;;;29.70;21.40;;;17.70;76.30;;;;;;5105644;28;20047;-62
2022/03/25 10:11:31;;;;;;;29.08;19.17;;;18.10;72.30;;;;;;5099120;28;20043;-60
2022/03/25 10:14:23;;;;;;;32.05;21.88;;;18.70;75.30;;;;;;5112104;28;20062;-60
2022/03/25 10:16:53;;;;;;;34.28;22.30;;;17.90;68.20;;;;;;5095307;28;20047;-61
2022/03/25 10:19:23;;;;;;;31.10;22.10;;;17.80;70.00;;;;;;5113473;28;20131;-61
2022/03/25 10:21:51;;;;;;;32.63;24.38;;;18.30;73.10;;;;;;5114413;28;20044;-61
2022/03/25 10:24:20;;;;;;;41.90;20.52;;;18.60;65.40;;;;;;5113424;28;20043;-61
2022/03/25 10:26:46;;;;;;;28.73;18.17;;;18.20;69.50;;;;;;5114683;28;20046;-61
2022/03/25 10:29:22;;;;;;;30.98;20.45;;;19.00;69.00;;;;;;5096043;28;20064;-62
2022/03/25 10:32:03;;;;;;;31.52;20.92;;;19.70;62.80;;;;;;5108410;28;20047;-60
2022/03/25 10:34:29;;;;;;;33.33;19.70;;;19.40;58.50;;;;;;5100347;27;20054;-60
2022/03/25 10:37:00;;;;;;;29.00;18.92;;;19.00;62.50;;;;;;5112225;27;20051;-61
2022/03/25 10:39:30;;;;;;;26.63;18.00;;;19.80;61.80;;;;;;5130560;27;20098;-60
2022/03/25 10:42:05;;;;;;;24.35;17.65;;;20.60;58.20;;;;;;5096430;28;20036;-60
2022/03/25 10:44:36;;;;;;;29.90;18.88;;;20.20;56.00;;;;;;5092082;28;20522;-60
2022/03/25 10:47:24;;;;;;;26.10;17.65;;;20.10;57.50;;;;;;5094548;28;20055;-60
2022/03/25 10:49:50;;;;;;;28.52;17.20;;;20.10;54.00;;;;;;5074999;28;20509;-60
2022/03/25 10:52:23;;;;;;;30.00;21.63;;;19.90;57.50;;;;;;5092406;28;20055;-61
2022/03/25 10:54:50;;;;;;;25.25;16.55;;;19.40;56.90;;;;;;5074748;28;20618;-60
2022/03/25 10:57:17;;;;;;;16.27;12.52;;;19.00;57.70;;;;;;5097827;27;20074;-64
2022/03/25 10:59:43;;;;;;;22.20;12.73;;;18.20;56.70;;;;;;5096751;28;20051;-62
2022/03/25 11:02:11;;;;;;;18.52;13.13;;;17.30;56.00;;;;;;5113408;28;20055;-62
2022/03/25 11:04:37;;;;;;;24.48;17.90;;;16.80;55.80;;;;;;5113948;27;20058;-62
2022/03/25 11:07:03;;;;;;;29.90;18.83;;;16.50;58.40;;;;;;5116623;27;20043;-61
2022/03/25 11:09:38;;;;;;;27.40;16.90;;;16.40;58.80;;;;;;5116286;27;20101;-61
2022/03/25 11:12:04;;;;;;;26.80;17.27;;;16.00;57.00;;;;;;5116582;27;20050;-61
2022/03/25 11:14:29;;;;;;;32.75;22.33;;;15.80;58.20;;;;;;5115762;27;20046;-62
2022/03/25 11:17:00;;;;;;;38.28;21.58;;;15.60;58.00;;;;;;5117062;27;20042;-62
2022/03/25 11:19:26;;;;;;;27.20;18.15;;;15.70;58.90;;;;;;5116608;27;20070;-60
2022/03/25 11:21:54;;;;;;;27.67;18.20;;;15.50;58.20;;;;;;5115780;27;20046;-62
2022/03/25 11:24:33;;;;;;;29.27;18.40;;;15.40;59.10;;;;;;5098384;27;20154;-61
2022/03/25 11:27:13;;;;;;;29.08;17.35;;;15.30;59.50;;;;;;5115392;27;20562;-62
2022/03/25 11:29:44;;;;;;;30.50;16.42;;;15.40;61.40;;;;;;5116224;27;20864;-62
2022/03/25 11:32:14;;;;;;;26.85;16.10;;;15.10;62.00;;;;;;5116392;27;20075;-62
2022/03/25 11:34:55;;;;;;;29.77;18.25;;;15.60;61.20;;;;;;5116079;27;20092;-62
2022/03/25 11:37:28;;;;;;;33.28;19.70;;;15.60;62.50;;;;;;5116636;27;20163;-61
2022/03/25 11:40:12;;;;;;;;;;;15.50;60.50;;;;;;5098335;27;20046;-62
2022/03/25 11:42:39;;;;;;;;;;;15.50;59.80;;;;;;5116499;27;19927;-61
2022/03/25 11:45:31;;;;;;;28.92;19.42;;;15.50;62.60;;;;;;5116471;27;19934;-62
2022/03/25 11:47:59;;;;;;;23.33;16.10;;;15.40;61.50;;;;;;5116616;27;20058;-61
2022/03/25 11:50:31;;;;;;;27.58;16.15;;;15.40;61.10;;;;;;5115232;27;20702;-61
2022/03/25 11:52:58;;;;;;;23.00;14.98;;;15.40;62.60;;;;;;5116057;27;20540;-61
2022/03/25 11:55:24;;;;;;;27.20;19.48;;;15.50;63.40;;;;;;5115256;27;20490;-62
2022/03/25 11:58:13;;;;;;;27.20;17.80;;;15.30;61.70;;;;;;5116336;27;20102;-62
2022/03/25 12:00:40;;;;;;;25.67;17.55;;;15.20;60.40;;;;;;5115643;27;20838;-61
2022/03/25 12:03:06;;;;;;;27.83;17.85;;;15.30;62.00;;;;;;5114733;27;20066;-62
2022/03/25 12:05:32;;;;;;;25.48;16.30;;;15.30;60.20;;;;;;5114741;27;20039;-62
2022/03/25 12:08:24;;;;;;;24.13;16.88;;;15.20;60.20;;;;;;5104522;27;20150;-63
2022/03/25 12:10:52;;;;;;;31.05;19.20;;;15.20;59.60;;;;;;5099988;27;20119;-62
2022/03/25 12:13:18;;;;;;;26.10;15.80;;;15.30;60.50;;;;;;5118207;27;20047;-62
2022/03/25 12:15:53;;;;;;;22.75;16.17;;;15.40;59.70;;;;;;5100797;27;20043;-62
2022/03/25 12:18:44;;;;;;;28.17;16.58;;;15.40;57.50;;;;;;5099926;27;20047;-62
2022/03/25 12:21:25;;;;;;;31.13;18.90;;;15.60;59.40;;;;;;5088306;27;20058;-62
2022/03/25 12:23:59;;;;;;;27.90;18.30;;;15.70;58.10;;;;;;5095498;27;20430;-62
2022/03/25 12:26:31;;;;;;;28.75;18.23;;;15.60;58.80;;;;;;5098214;27;20104;-62
2022/03/25 12:28:57;;;;;;;35.05;17.73;;;15.60;58.70;;;;;;5095779;27;20047;-62
2022/03/25 12:31:24;;;;;;;23.85;18.48;;;15.60;57.90;;;;;;5095568;27;20050;-61
2022/03/25 12:33:54;;;;;;;27.63;16.45;;;15.60;56.70;;;;;;5101803;27;20122;-61
2022/03/25 12:36:19;;;;;;;23.88;15.23;;;15.50;57.20;;;;;;5103330;27;20050;-62
2022/03/25 12:38:47;;;;;;;29.95;16.15;;;15.70;58.00;;;;;;5093145;28;20810;-63
2022/03/25 12:41:25;;;;;;;30.35;17.08;;;15.70;56.70;;;;;;5097266;27;20131;-62